sensor_id;sensor_type;location;lat;lon;timestamp;P1;durP1;ratioP1;P2;durP2;ratioP2
64562;SDS011;50961;48.184;11.636;2022-07-29T00:00:08;3.83;;;2.20;;
64562;SDS011;50961;48.184;11.636;2022-07-29T00:02:35;2.40;;;1.80;;
64562;SDS011;50961;48.184;11.636;2022-07-29T00:05:00;4.82;;;2.20;;
64562;SDS011;50961;48.184;11.636;2022-07-29T00:07:26;3.17;;;1.83;;
64562;SDS011;50961;48.184;11.636;2022-07-29T00:09:51;2.72;;;1.92;;
64562;SDS011;50961;48.184;11.636;2022-07-29T00:12:17;2.38;;;1.90;;
64562;SDS011;50961;48.184;11.636;2022-07-29T00:14:46;3.35;;;2.03;;
64562;SDS011;50961;48.184;11.636;2022-07-29T00:17:11;3.53;;;2.05;;
64562;SDS011;50961;48.184;11.636;2022-07-29T00:19:37;3.75;;;2.00;;
64562;SDS011;50961;48.184;11.636;2022-07-29T00:22:02;2.55;;;2.03;;
64562;SDS011;50961;48.184;11.636;2022-07-29T00:24:27;4.07;;;2.30;;
64562;SDS011;50961;48.184;11.636;2022-07-29T00:26:53;3.72;;;2.13;;
64562;SDS011;50961;48.184;11.636;2022-07-29T00:29:18;5.03;;;2.30;;
64562;SDS011;50961;48.184;11.636;2022-07-29T00:31:44;3.30;;;2.15;;
64562;SDS011;50961;48.184;11.636;2022-07-29T00:34:09;4.68;;;2.28;;
64562;SDS011;50961;48.184;11.636;2022-07-29T00:36:55;4.93;;;2.40;;
64562;SDS011;50961;48.184;11.636;2022-07-29T00:39:20;5.85;;;2.50;;
64562;SDS011;50961;48.184;11.636;2022-07-29T00:41:46;4.47;;;2.60;;
64562;SDS011;50961;48.184;11.636;2022-07-29T00:44:11;4.40;;;2.50;;
64562;SDS011;50961;48.184;11.636;2022-07-29T00:46:37;4.38;;;2.47;;
64562;SDS011;50961;48.184;11.636;2022-07-29T00:49:02;4.43;;;2.47;;
64562;SDS011;50961;48.184;11.636;2022-07-29T00:51:27;4.80;;;2.80;;
64562;SDS011;50961;48.184;11.636;2022-07-29T00:53:53;3.97;;;2.72;;
64562;SDS011;50961;48.184;11.636;2022-07-29T00:56:19;5.43;;;2.90;;
64562;SDS011;50961;48.184;11.636;2022-07-29T00:58:45;4.03;;;2.70;;
64562;SDS011;50961;48.184;11.636;2022-07-29T01:01:12;5.25;;;2.83;;
64562;SDS011;50961;48.184;11.636;2022-07-29T01:03:37;4.90;;;2.60;;
64562;SDS011;50961;48.184;11.636;2022-07-29T01:06:03;4.93;;;2.88;;
64562;SDS011;50961;48.184;11.636;2022-07-29T01:08:29;5.25;;;2.72;;
64562;SDS011;50961;48.184;11.636;2022-07-29T01:10:56;3.90;;;2.28;;
64562;SDS011;50961;48.184;11.636;2022-07-29T01:13:22;4.75;;;2.65;;
64562;SDS011;50961;48.184;11.636;2022-07-29T01:15:51;5.53;;;2.90;;
64562;SDS011;50961;48.184;11.636;2022-07-29T01:18:31;5.38;;;2.72;;
64562;SDS011;50961;48.184;11.636;2022-07-29T01:34:09;4.93;;;2.90;;
64562;SDS011;50961;48.184;11.636;2022-07-29T01:36:51;5.05;;;2.97;;
64562;SDS011;50961;48.184;11.636;2022-07-29T01:39:30;4.82;;;3.03;;
64562;SDS011;50961;48.184;11.636;2022-07-29T01:42:12;4.60;;;2.83;;
64562;SDS011;50961;48.184;11.636;2022-07-29T01:44:54;4.45;;;2.67;;
64562;SDS011;50961;48.184;11.636;2022-07-29T01:47:23;4.88;;;3.00;;
64562;SDS011;50961;48.184;11.636;2022-07-29T01:49:56;5.82;;;3.10;;
64562;SDS011;50961;48.184;11.636;2022-07-29T01:52:31;4.45;;;2.85;;
64562;SDS011;50961;48.184;11.636;2022-07-29T01:55:02;4.82;;;3.05;;
64562;SDS011;50961;48.184;11.636;2022-07-29T01:57:33;4.40;;;3.13;;
64562;SDS011;50961;48.184;11.636;2022-07-29T02:00:00;6.15;;;3.10;;
64562;SDS011;50961;48.184;11.636;2022-07-29T02:02:27;6.28;;;3.50;;
64562;SDS011;50961;48.184;11.636;2022-07-29T02:04:53;5.15;;;3.13;;
64562;SDS011;50961;48.184;11.636;2022-07-29T02:07:21;5.53;;;3.30;;
64562;SDS011;50961;48.184;11.636;2022-07-29T02:09:50;5.72;;;3.33;;
64562;SDS011;50961;48.184;11.636;2022-07-29T02:12:18;4.85;;;3.08;;
64562;SDS011;50961;48.184;11.636;2022-07-29T02:14:47;7.18;;;3.55;;
64562;SDS011;50961;48.184;11.636;2022-07-29T02:17:14;7.00;;;3.88;;
64562;SDS011;50961;48.184;11.636;2022-07-29T02:20:02;5.32;;;3.10;;
64562;SDS011;50961;48.184;11.636;2022-07-29T02:22:29;6.40;;;3.45;;
64562;SDS011;50961;48.184;11.636;2022-07-29T02:24:57;6.68;;;3.70;;
64562;SDS011;50961;48.184;11.636;2022-07-29T02:27:23;6.30;;;3.80;;
64562;SDS011;50961;48.184;11.636;2022-07-29T02:29:52;6.18;;;3.38;;
64562;SDS011;50961;48.184;11.636;2022-07-29T02:32:19;5.22;;;3.35;;
64562;SDS011;50961;48.184;11.636;2022-07-29T02:34:47;7.55;;;3.80;;
64562;SDS011;50961;48.184;11.636;2022-07-29T02:37:15;5.65;;;3.72;;
64562;SDS011;50961;48.184;11.636;2022-07-29T02:39:42;6.53;;;3.50;;
64562;SDS011;50961;48.184;11.636;2022-07-29T02:42:11;5.78;;;3.85;;
64562;SDS011;50961;48.184;11.636;2022-07-29T02:44:39;5.32;;;3.50;;
64562;SDS011;50961;48.184;11.636;2022-07-29T02:49:56;5.82;;;3.70;;
64562;SDS011;50961;48.184;11.636;2022-07-29T02:52:31;6.88;;;3.60;;
64562;SDS011;50961;48.184;11.636;2022-07-29T02:57:43;5.53;;;3.50;;
64562;SDS011;50961;48.184;11.636;2022-07-29T03:00:11;5.93;;;3.70;;
64562;SDS011;50961;48.184;11.636;2022-07-29T03:02:39;7.35;;;3.60;;
64562;SDS011;50961;48.184;11.636;2022-07-29T03:05:09;6.53;;;3.88;;
64562;SDS011;50961;48.184;11.636;2022-07-29T03:07:40;5.47;;;3.67;;
64562;SDS011;50961;48.184;11.636;2022-07-29T03:10:08;9.48;;;3.80;;
64562;SDS011;50961;48.184;11.636;2022-07-29T03:12:35;5.28;;;3.55;;
64562;SDS011;50961;48.184;11.636;2022-07-29T03:15:00;7.47;;;4.00;;
64562;SDS011;50961;48.184;11.636;2022-07-29T03:17:27;4.82;;;3.15;;
64562;SDS011;50961;48.184;11.636;2022-07-29T03:19:52;8.63;;;3.90;;
64562;SDS011;50961;48.184;11.636;2022-07-29T03:22:18;7.78;;;4.13;;
64562;SDS011;50961;48.184;11.636;2022-07-29T03:24:44;6.15;;;3.60;;
64562;SDS011;50961;48.184;11.636;2022-07-29T03:27:09;5.53;;;3.83;;
64562;SDS011;50961;48.184;11.636;2022-07-29T03:29:35;6.13;;;3.85;;
64562;SDS011;50961;48.184;11.636;2022-07-29T03:32:02;6.22;;;3.72;;
64562;SDS011;50961;48.184;11.636;2022-07-29T03:34:29;5.88;;;3.58;;
64562;SDS011;50961;48.184;11.636;2022-07-29T03:36:54;7.68;;;3.90;;
64562;SDS011;50961;48.184;11.636;2022-07-29T03:39:20;17.30;;;9.07;;
64562;SDS011;50961;48.184;11.636;2022-07-29T03:41:48;10.27;;;5.30;;
64562;SDS011;50961;48.184;11.636;2022-07-29T03:44:16;9.23;;;4.68;;
64562;SDS011;50961;48.184;11.636;2022-07-29T03:46:44;6.95;;;4.55;;
64562;SDS011;50961;48.184;11.636;2022-07-29T03:49:11;6.28;;;4.00;;
64562;SDS011;50961;48.184;11.636;2022-07-29T03:51:39;7.10;;;4.38;;
64562;SDS011;50961;48.184;11.636;2022-07-29T03:54:05;7.80;;;4.10;;
64562;SDS011;50961;48.184;11.636;2022-07-29T03:56:31;7.88;;;4.13;;
64562;SDS011;50961;48.184;11.636;2022-07-29T03:58:59;7.28;;;3.80;;
64562;SDS011;50961;48.184;11.636;2022-07-29T04:01:27;6.93;;;4.25;;
64562;SDS011;50961;48.184;11.636;2022-07-29T04:03:53;10.35;;;5.88;;
64562;SDS011;50961;48.184;11.636;2022-07-29T04:06:18;12.45;;;6.47;;
64562;SDS011;50961;48.184;11.636;2022-07-29T04:08:44;7.93;;;4.55;;
64562;SDS011;50961;48.184;11.636;2022-07-29T04:11:09;7.20;;;4.30;;
64562;SDS011;50961;48.184;11.636;2022-07-29T04:13:35;8.13;;;4.32;;
64562;SDS011;50961;48.184;11.636;2022-07-29T04:16:00;8.57;;;4.70;;
64562;SDS011;50961;48.184;11.636;2022-07-29T04:18:25;13.43;;;6.40;;
64562;SDS011;50961;48.184;11.636;2022-07-29T04:20:51;8.02;;;4.38;;
64562;SDS011;50961;48.184;11.636;2022-07-29T04:23:16;8.25;;;4.10;;
64562;SDS011;50961;48.184;11.636;2022-07-29T04:25:42;10.50;;;5.13;;
64562;SDS011;50961;48.184;11.636;2022-07-29T04:28:08;9.98;;;4.93;;
64562;SDS011;50961;48.184;11.636;2022-07-29T04:30:35;10.65;;;4.90;;
64562;SDS011;50961;48.184;11.636;2022-07-29T04:33:02;9.07;;;4.25;;
64562;SDS011;50961;48.184;11.636;2022-07-29T04:35:30;10.88;;;4.57;;
64562;SDS011;50961;48.184;11.636;2022-07-29T04:37:58;11.52;;;6.45;;
64562;SDS011;50961;48.184;11.636;2022-07-29T04:40:23;14.55;;;6.50;;
64562;SDS011;50961;48.184;11.636;2022-07-29T04:42:48;11.93;;;5.30;;
64562;SDS011;50961;48.184;11.636;2022-07-29T04:45:14;9.13;;;4.78;;
64562;SDS011;50961;48.184;11.636;2022-07-29T04:47:39;13.13;;;5.13;;
64562;SDS011;50961;48.184;11.636;2022-07-29T04:50:05;8.77;;;4.13;;
64562;SDS011;50961;48.184;11.636;2022-07-29T04:52:31;8.60;;;4.32;;
64562;SDS011;50961;48.184;11.636;2022-07-29T04:54:57;8.15;;;4.30;;
64562;SDS011;50961;48.184;11.636;2022-07-29T04:57:22;8.13;;;3.95;;
64562;SDS011;50961;48.184;11.636;2022-07-29T04:59:48;7.68;;;4.00;;
64562;SDS011;50961;48.184;11.636;2022-07-29T05:02:14;8.05;;;4.05;;
64562;SDS011;50961;48.184;11.636;2022-07-29T05:04:39;6.55;;;3.50;;
64562;SDS011;50961;48.184;11.636;2022-07-29T05:07:04;24.30;;;9.93;;
64562;SDS011;50961;48.184;11.636;2022-07-29T05:09:30;10.45;;;4.97;;
64562;SDS011;50961;48.184;11.636;2022-07-29T05:11:57;12.75;;;4.57;;
64562;SDS011;50961;48.184;11.636;2022-07-29T05:14:22;15.88;;;4.72;;
64562;SDS011;50961;48.184;11.636;2022-07-29T05:16:48;15.32;;;5.10;;
64562;SDS011;50961;48.184;11.636;2022-07-29T05:19:15;19.00;;;4.80;;
64562;SDS011;50961;48.184;11.636;2022-07-29T05:21:41;17.08;;;4.68;;
64562;SDS011;50961;48.184;11.636;2022-07-29T05:24:07;16.23;;;4.82;;
64562;SDS011;50961;48.184;11.636;2022-07-29T05:26:32;9.38;;;4.00;;
64562;SDS011;50961;48.184;11.636;2022-07-29T05:28:58;13.10;;;3.97;;
64562;SDS011;50961;48.184;11.636;2022-07-29T05:31:23;13.25;;;3.90;;
64562;SDS011;50961;48.184;11.636;2022-07-29T05:33:49;14.95;;;4.10;;
64562;SDS011;50961;48.184;11.636;2022-07-29T05:36:14;19.65;;;5.07;;
64562;SDS011;50961;48.184;11.636;2022-07-29T05:38:39;39.95;;;14.30;;
64562;SDS011;50961;48.184;11.636;2022-07-29T05:41:05;22.67;;;9.13;;
64562;SDS011;50961;48.184;11.636;2022-07-29T05:43:30;19.13;;;5.15;;
64562;SDS011;50961;48.184;11.636;2022-07-29T05:45:56;18.60;;;4.90;;
64562;SDS011;50961;48.184;11.636;2022-07-29T05:48:22;28.85;;;5.53;;
64562;SDS011;50961;48.184;11.636;2022-07-29T05:50:47;13.95;;;3.80;;
64562;SDS011;50961;48.184;11.636;2022-07-29T05:53:12;15.27;;;3.83;;
64562;SDS011;50961;48.184;11.636;2022-07-29T05:55:38;12.43;;;3.50;;
64562;SDS011;50961;48.184;11.636;2022-07-29T05:58:03;7.75;;;3.90;;
64562;SDS011;50961;48.184;11.636;2022-07-29T06:00:29;9.35;;;3.67;;
64562;SDS011;50961;48.184;11.636;2022-07-29T06:02:55;7.85;;;3.58;;
64562;SDS011;50961;48.184;11.636;2022-07-29T06:05:20;8.65;;;3.40;;
64562;SDS011;50961;48.184;11.636;2022-07-29T06:07:45;10.52;;;3.58;;
64562;SDS011;50961;48.184;11.636;2022-07-29T06:10:11;11.95;;;4.28;;
64562;SDS011;50961;48.184;11.636;2022-07-29T06:12:36;8.95;;;4.20;;
64562;SDS011;50961;48.184;11.636;2022-07-29T06:15:02;12.88;;;6.63;;
64562;SDS011;50961;48.184;11.636;2022-07-29T06:17:27;10.73;;;4.97;;
64562;SDS011;50961;48.184;11.636;2022-07-29T06:19:53;7.60;;;3.70;;
64562;SDS011;50961;48.184;11.636;2022-07-29T06:22:18;11.05;;;3.88;;
64562;SDS011;50961;48.184;11.636;2022-07-29T06:24:44;13.88;;;4.25;;
64562;SDS011;50961;48.184;11.636;2022-07-29T06:27:09;16.98;;;4.80;;
64562;SDS011;50961;48.184;11.636;2022-07-29T06:29:35;14.23;;;3.63;;
64562;SDS011;50961;48.184;11.636;2022-07-29T06:32:01;12.15;;;3.67;;
64562;SDS011;50961;48.184;11.636;2022-07-29T06:34:27;11.02;;;3.60;;
64562;SDS011;50961;48.184;11.636;2022-07-29T06:36:53;8.13;;;3.90;;
64562;SDS011;50961;48.184;11.636;2022-07-29T06:39:18;7.30;;;3.38;;
64562;SDS011;50961;48.184;11.636;2022-07-29T06:41:46;7.07;;;3.67;;
64562;SDS011;50961;48.184;11.636;2022-07-29T06:44:13;5.40;;;3.08;;
64562;SDS011;50961;48.184;11.636;2022-07-29T06:46:39;8.45;;;3.47;;
64562;SDS011;50961;48.184;11.636;2022-07-29T06:49:04;8.95;;;3.88;;
64562;SDS011;50961;48.184;11.636;2022-07-29T06:51:30;8.70;;;3.60;;
64562;SDS011;50961;48.184;11.636;2022-07-29T06:53:55;9.45;;;3.72;;
64562;SDS011;50961;48.184;11.636;2022-07-29T06:56:22;9.23;;;3.30;;
64562;SDS011;50961;48.184;11.636;2022-07-29T06:58:48;6.90;;;3.50;;
64562;SDS011;50961;48.184;11.636;2022-07-29T07:01:13;6.32;;;3.40;;
64562;SDS011;50961;48.184;11.636;2022-07-29T07:03:38;9.10;;;3.60;;
64562;SDS011;50961;48.184;11.636;2022-07-29T07:06:04;6.85;;;3.25;;
64562;SDS011;50961;48.184;11.636;2022-07-29T07:08:29;6.00;;;3.30;;
64562;SDS011;50961;48.184;11.636;2022-07-29T07:10:55;5.07;;;3.40;;
64562;SDS011;50961;48.184;11.636;2022-07-29T07:13:21;6.68;;;3.50;;
64562;SDS011;50961;48.184;11.636;2022-07-29T07:15:47;5.80;;;3.42;;
64562;SDS011;50961;48.184;11.636;2022-07-29T07:18:13;7.63;;;3.72;;
64562;SDS011;50961;48.184;11.636;2022-07-29T07:20:39;7.35;;;3.55;;
64562;SDS011;50961;48.184;11.636;2022-07-29T07:23:05;6.32;;;3.22;;
64562;SDS011;50961;48.184;11.636;2022-07-29T07:25:30;7.78;;;3.60;;
64562;SDS011;50961;48.184;11.636;2022-07-29T07:27:57;9.00;;;3.70;;
64562;SDS011;50961;48.184;11.636;2022-07-29T07:30:22;6.72;;;3.53;;
64562;SDS011;50961;48.184;11.636;2022-07-29T07:32:47;6.95;;;3.70;;
64562;SDS011;50961;48.184;11.636;2022-07-29T07:35:13;7.03;;;3.50;;
64562;SDS011;50961;48.184;11.636;2022-07-29T07:37:39;5.30;;;3.30;;
64562;SDS011;50961;48.184;11.636;2022-07-29T07:40:05;9.45;;;3.55;;
64562;SDS011;50961;48.184;11.636;2022-07-29T07:42:31;5.35;;;3.42;;
64562;SDS011;50961;48.184;11.636;2022-07-29T07:44:57;11.38;;;5.78;;
64562;SDS011;50961;48.184;11.636;2022-07-29T07:47:22;9.95;;;4.65;;
64562;SDS011;50961;48.184;11.636;2022-07-29T07:49:49;8.70;;;3.78;;
64562;SDS011;50961;48.184;11.636;2022-07-29T07:52:16;7.00;;;3.33;;
64562;SDS011;50961;48.184;11.636;2022-07-29T07:54:43;6.00;;;3.40;;
64562;SDS011;50961;48.184;11.636;2022-07-29T07:57:09;5.45;;;3.08;;
64562;SDS011;50961;48.184;11.636;2022-07-29T07:59:35;5.70;;;3.05;;
64562;SDS011;50961;48.184;11.636;2022-07-29T08:02:01;5.85;;;3.00;;
64562;SDS011;50961;48.184;11.636;2022-07-29T08:04:26;7.57;;;2.85;;
64562;SDS011;50961;48.184;11.636;2022-07-29T08:06:52;8.90;;;2.83;;
64562;SDS011;50961;48.184;11.636;2022-07-29T08:09:19;12.32;;;3.30;;
64562;SDS011;50961;48.184;11.636;2022-07-29T08:11:45;4.45;;;2.65;;
64562;SDS011;50961;48.184;11.636;2022-07-29T08:14:10;6.35;;;3.38;;
64562;SDS011;50961;48.184;11.636;2022-07-29T08:16:36;9.02;;;4.50;;
64562;SDS011;50961;48.184;11.636;2022-07-29T08:19:01;5.43;;;3.03;;
64562;SDS011;50961;48.184;11.636;2022-07-29T08:21:26;6.07;;;2.92;;
64562;SDS011;50961;48.184;11.636;2022-07-29T08:23:52;4.97;;;3.08;;
64562;SDS011;50961;48.184;11.636;2022-07-29T08:26:20;5.72;;;3.25;;
64562;SDS011;50961;48.184;11.636;2022-07-29T08:28:47;5.38;;;2.85;;
64562;SDS011;50961;48.184;11.636;2022-07-29T08:31:15;5.35;;;2.90;;
64562;SDS011;50961;48.184;11.636;2022-07-29T08:33:42;4.32;;;2.95;;
64562;SDS011;50961;48.184;11.636;2022-07-29T08:36:07;7.47;;;2.92;;
64562;SDS011;50961;48.184;11.636;2022-07-29T08:38:33;5.15;;;3.05;;
64562;SDS011;50961;48.184;11.636;2022-07-29T08:41:02;5.63;;;3.03;;
64562;SDS011;50961;48.184;11.636;2022-07-29T08:43:28;6.95;;;3.10;;
64562;SDS011;50961;48.184;11.636;2022-07-29T08:45:54;4.45;;;3.05;;
64562;SDS011;50961;48.184;11.636;2022-07-29T08:48:20;9.23;;;3.30;;
64562;SDS011;50961;48.184;11.636;2022-07-29T08:50:48;6.00;;;3.33;;
64562;SDS011;50961;48.184;11.636;2022-07-29T08:53:17;5.00;;;3.40;;
64562;SDS011;50961;48.184;11.636;2022-07-29T08:55:44;7.47;;;3.65;;
64562;SDS011;50961;48.184;11.636;2022-07-29T08:58:11;6.03;;;3.60;;
64562;SDS011;50961;48.184;11.636;2022-07-29T09:00:39;6.07;;;3.70;;
64562;SDS011;50961;48.184;11.636;2022-07-29T09:03:12;5.95;;;3.50;;
64562;SDS011;50961;48.184;11.636;2022-07-29T09:05:41;6.57;;;3.67;;
64562;SDS011;50961;48.184;11.636;2022-07-29T09:08:07;4.90;;;3.33;;
64562;SDS011;50961;48.184;11.636;2022-07-29T09:10:35;4.88;;;3.40;;
64562;SDS011;50961;48.184;11.636;2022-07-29T09:13:01;6.07;;;3.45;;
64562;SDS011;50961;48.184;11.636;2022-07-29T09:15:26;5.38;;;3.67;;
64562;SDS011;50961;48.184;11.636;2022-07-29T09:17:51;5.95;;;4.00;;
64562;SDS011;50961;48.184;11.636;2022-07-29T09:20:21;6.43;;;3.75;;
64562;SDS011;50961;48.184;11.636;2022-07-29T09:22:47;8.40;;;4.13;;
64562;SDS011;50961;48.184;11.636;2022-07-29T09:25:36;6.13;;;3.70;;
64562;SDS011;50961;48.184;11.636;2022-07-29T09:30:35;5.60;;;3.50;;
64562;SDS011;50961;48.184;11.636;2022-07-29T09:33:01;8.00;;;4.10;;
64562;SDS011;50961;48.184;11.636;2022-07-29T09:35:31;8.10;;;5.03;;
64562;SDS011;50961;48.184;11.636;2022-07-29T09:37:56;7.55;;;3.70;;
64562;SDS011;50961;48.184;11.636;2022-07-29T09:40:26;6.95;;;3.90;;
64562;SDS011;50961;48.184;11.636;2022-07-29T09:42:52;6.45;;;3.92;;
64562;SDS011;50961;48.184;11.636;2022-07-29T09:45:28;5.70;;;3.78;;
64562;SDS011;50961;48.184;11.636;2022-07-29T09:47:55;6.25;;;3.65;;
64562;SDS011;50961;48.184;11.636;2022-07-29T09:50:34;5.60;;;3.58;;
64562;SDS011;50961;48.184;11.636;2022-07-29T09:53:01;8.07;;;3.90;;
64562;SDS011;50961;48.184;11.636;2022-07-29T09:55:26;6.07;;;4.03;;
64562;SDS011;50961;48.184;11.636;2022-07-29T09:57:52;7.03;;;4.20;;
64562;SDS011;50961;48.184;11.636;2022-07-29T10:00:19;6.50;;;4.07;;
64562;SDS011;50961;48.184;11.636;2022-07-29T10:02:46;5.25;;;3.97;;
64562;SDS011;50961;48.184;11.636;2022-07-29T10:05:16;8.15;;;4.30;;
64562;SDS011;50961;48.184;11.636;2022-07-29T10:07:52;6.50;;;4.00;;
64562;SDS011;50961;48.184;11.636;2022-07-29T10:10:20;10.18;;;4.78;;
64562;SDS011;50961;48.184;11.636;2022-07-29T10:12:54;6.13;;;4.35;;
64562;SDS011;50961;48.184;11.636;2022-07-29T10:15:24;7.03;;;4.53;;
64562;SDS011;50961;48.184;11.636;2022-07-29T10:17:52;7.20;;;4.57;;
64562;SDS011;50961;48.184;11.636;2022-07-29T10:20:19;6.32;;;4.35;;
64562;SDS011;50961;48.184;11.636;2022-07-29T10:22:46;6.72;;;4.38;;
64562;SDS011;50961;48.184;11.636;2022-07-29T10:25:12;6.75;;;4.90;;
64562;SDS011;50961;48.184;11.636;2022-07-29T10:27:40;7.00;;;4.50;;
64562;SDS011;50961;48.184;11.636;2022-07-29T10:30:05;8.18;;;4.20;;
64562;SDS011;50961;48.184;11.636;2022-07-29T10:36:19;6.13;;;4.40;;
64562;SDS011;50961;48.184;11.636;2022-07-29T10:38:47;7.28;;;4.22;;
64562;SDS011;50961;48.184;11.636;2022-07-29T10:44:00;7.15;;;4.50;;
64562;SDS011;50961;48.184;11.636;2022-07-29T10:46:35;6.15;;;4.40;;
64562;SDS011;50961;48.184;11.636;2022-07-29T10:49:05;7.30;;;4.43;;
64562;SDS011;50961;48.184;11.636;2022-07-29T10:51:53;8.00;;;4.45;;
64562;SDS011;50961;48.184;11.636;2022-07-29T10:59:41;7.40;;;4.55;;
64562;SDS011;50961;48.184;11.636;2022-07-29T11:05:04;6.22;;;4.57;;
64562;SDS011;50961;48.184;11.636;2022-07-29T11:07:33;7.93;;;4.95;;
64562;SDS011;50961;48.184;11.636;2022-07-29T11:15:06;6.05;;;4.40;;
64562;SDS011;50961;48.184;11.636;2022-07-29T11:20:44;7.32;;;4.70;;
64562;SDS011;50961;48.184;11.636;2022-07-29T11:26:31;9.85;;;4.75;;
64562;SDS011;50961;48.184;11.636;2022-07-29T11:34:16;7.22;;;4.65;;
64562;SDS011;50961;48.184;11.636;2022-07-29T11:39:44;7.03;;;4.18;;
64562;SDS011;50961;48.184;11.636;2022-07-29T11:47:40;5.30;;;4.05;;
64562;SDS011;50961;48.184;11.636;2022-07-29T11:50:16;8.25;;;3.85;;
64562;SDS011;50961;48.184;11.636;2022-07-29T11:52:51;6.43;;;3.80;;
64562;SDS011;50961;48.184;11.636;2022-07-29T11:55:17;6.53;;;3.85;;
64562;SDS011;50961;48.184;11.636;2022-07-29T11:57:48;6.07;;;3.55;;
64562;SDS011;50961;48.184;11.636;2022-07-29T12:00:22;6.35;;;4.07;;
64562;SDS011;50961;48.184;11.636;2022-07-29T12:02:49;7.63;;;4.00;;
64562;SDS011;50961;48.184;11.636;2022-07-29T12:05:14;6.45;;;4.00;;
64562;SDS011;50961;48.184;11.636;2022-07-29T12:07:40;7.95;;;4.13;;
64562;SDS011;50961;48.184;11.636;2022-07-29T12:10:06;6.22;;;3.80;;
64562;SDS011;50961;48.184;11.636;2022-07-29T12:12:33;8.50;;;4.60;;
64562;SDS011;50961;48.184;11.636;2022-07-29T12:15:20;8.60;;;5.18;;
64562;SDS011;50961;48.184;11.636;2022-07-29T12:17:46;5.32;;;3.47;;
64562;SDS011;50961;48.184;11.636;2022-07-29T12:20:12;6.05;;;4.00;;
64562;SDS011;50961;48.184;11.636;2022-07-29T12:22:39;5.70;;;4.00;;
64562;SDS011;50961;48.184;11.636;2022-07-29T12:27:32;5.53;;;3.15;;
64562;SDS011;50961;48.184;11.636;2022-07-29T12:30:03;5.45;;;3.80;;
64562;SDS011;50961;48.184;11.636;2022-07-29T12:32:35;6.60;;;3.80;;
64562;SDS011;50961;48.184;11.636;2022-07-29T12:35:03;5.80;;;3.83;;
64562;SDS011;50961;48.184;11.636;2022-07-29T12:37:33;6.13;;;3.53;;
64562;SDS011;50961;48.184;11.636;2022-07-29T12:40:02;6.18;;;3.95;;
64562;SDS011;50961;48.184;11.636;2022-07-29T12:42:28;10.50;;;5.22;;
64562;SDS011;50961;48.184;11.636;2022-07-29T12:44:54;9.98;;;4.05;;
64562;SDS011;50961;48.184;11.636;2022-07-29T12:47:20;6.78;;;3.75;;
64562;SDS011;50961;48.184;11.636;2022-07-29T12:49:46;5.72;;;3.60;;
64562;SDS011;50961;48.184;11.636;2022-07-29T12:52:31;6.00;;;3.92;;
64562;SDS011;50961;48.184;11.636;2022-07-29T12:54:58;7.10;;;4.00;;
64562;SDS011;50961;48.184;11.636;2022-07-29T12:57:24;5.50;;;3.78;;
64562;SDS011;50961;48.184;11.636;2022-07-29T13:00:00;7.85;;;3.80;;
64562;SDS011;50961;48.184;11.636;2022-07-29T13:02:35;6.85;;;3.45;;
64562;SDS011;50961;48.184;11.636;2022-07-29T13:05:03;7.63;;;3.80;;
64562;SDS011;50961;48.184;11.636;2022-07-29T13:07:31;7.25;;;3.65;;
64562;SDS011;50961;48.184;11.636;2022-07-29T13:13:01;8.23;;;3.85;;
64562;SDS011;50961;48.184;11.636;2022-07-29T13:15:30;7.18;;;4.38;;
64562;SDS011;50961;48.184;11.636;2022-07-29T13:17:57;7.10;;;4.00;;
64562;SDS011;50961;48.184;11.636;2022-07-29T13:20:26;7.22;;;3.80;;
64562;SDS011;50961;48.184;11.636;2022-07-29T13:22:54;5.40;;;3.80;;
64562;SDS011;50961;48.184;11.636;2022-07-29T13:25:29;4.68;;;3.50;;
64562;SDS011;50961;48.184;11.636;2022-07-29T13:27:56;4.88;;;3.40;;
64562;SDS011;50961;48.184;11.636;2022-07-29T13:30:22;7.57;;;3.40;;
64562;SDS011;50961;48.184;11.636;2022-07-29T13:32:48;5.03;;;3.40;;
64562;SDS011;50961;48.184;11.636;2022-07-29T13:35:14;5.20;;;3.30;;
64562;SDS011;50961;48.184;11.636;2022-07-29T13:37:40;4.45;;;3.45;;
64562;SDS011;50961;48.184;11.636;2022-07-29T13:40:06;5.63;;;3.40;;
64562;SDS011;50961;48.184;11.636;2022-07-29T13:42:33;5.80;;;3.20;;
64562;SDS011;50961;48.184;11.636;2022-07-29T13:44:59;5.18;;;3.10;;
64562;SDS011;50961;48.184;11.636;2022-07-29T13:47:25;5.93;;;3.45;;
64562;SDS011;50961;48.184;11.636;2022-07-29T13:49:52;5.00;;;3.30;;
64562;SDS011;50961;48.184;11.636;2022-07-29T13:52:18;4.93;;;3.53;;
64562;SDS011;50961;48.184;11.636;2022-07-29T13:54:44;5.82;;;3.13;;
64562;SDS011;50961;48.184;11.636;2022-07-29T13:57:10;6.13;;;3.30;;
64562;SDS011;50961;48.184;11.636;2022-07-29T13:59:36;5.15;;;3.40;;
64562;SDS011;50961;48.184;11.636;2022-07-29T14:02:02;5.57;;;3.60;;
64562;SDS011;50961;48.184;11.636;2022-07-29T14:04:27;4.50;;;3.55;;
64562;SDS011;50961;48.184;11.636;2022-07-29T14:06:53;6.20;;;3.60;;
64562;SDS011;50961;48.184;11.636;2022-07-29T14:09:18;6.97;;;3.65;;
64562;SDS011;50961;48.184;11.636;2022-07-29T14:11:44;4.65;;;3.55;;
64562;SDS011;50961;48.184;11.636;2022-07-29T14:14:10;5.07;;;3.67;;
64562;SDS011;50961;48.184;11.636;2022-07-29T14:16:36;5.78;;;3.60;;
64562;SDS011;50961;48.184;11.636;2022-07-29T14:19:02;5.30;;;3.40;;
64562;SDS011;50961;48.184;11.636;2022-07-29T14:21:27;4.75;;;2.90;;
64562;SDS011;50961;48.184;11.636;2022-07-29T14:23:53;5.30;;;3.30;;
64562;SDS011;50961;48.184;11.636;2022-07-29T14:26:19;7.05;;;3.38;;
64562;SDS011;50961;48.184;11.636;2022-07-29T14:28:46;4.78;;;3.40;;
64562;SDS011;50961;48.184;11.636;2022-07-29T14:31:11;5.85;;;3.45;;
64562;SDS011;50961;48.184;11.636;2022-07-29T14:33:37;4.85;;;2.83;;
64562;SDS011;50961;48.184;11.636;2022-07-29T14:36:03;7.22;;;3.33;;
64562;SDS011;50961;48.184;11.636;2022-07-29T14:38:28;6.45;;;3.10;;
64562;SDS011;50961;48.184;11.636;2022-07-29T14:40:53;5.82;;;3.10;;
64562;SDS011;50961;48.184;11.636;2022-07-29T14:43:19;3.10;;;2.80;;
64562;SDS011;50961;48.184;11.636;2022-07-29T14:45:44;4.32;;;2.92;;
64562;SDS011;50961;48.184;11.636;2022-07-29T14:48:10;4.55;;;3.03;;
64562;SDS011;50961;48.184;11.636;2022-07-29T14:50:36;5.53;;;3.17;;
64562;SDS011;50961;48.184;11.636;2022-07-29T14:53:02;4.90;;;3.58;;
64562;SDS011;50961;48.184;11.636;2022-07-29T14:55:27;4.88;;;3.20;;
64562;SDS011;50961;48.184;11.636;2022-07-29T14:57:53;5.70;;;3.20;;
64562;SDS011;50961;48.184;11.636;2022-07-29T15:00:19;5.35;;;3.40;;
64562;SDS011;50961;48.184;11.636;2022-07-29T15:02:45;5.85;;;3.50;;
64562;SDS011;50961;48.184;11.636;2022-07-29T15:05:11;7.28;;;3.15;;
64562;SDS011;50961;48.184;11.636;2022-07-29T15:07:37;3.83;;;3.35;;
64562;SDS011;50961;48.184;11.636;2022-07-29T15:10:02;5.10;;;3.10;;
64562;SDS011;50961;48.184;11.636;2022-07-29T15:12:29;3.65;;;3.03;;
64562;SDS011;50961;48.184;11.636;2022-07-29T15:14:55;6.32;;;3.30;;
64562;SDS011;50961;48.184;11.636;2022-07-29T15:17:21;4.95;;;3.30;;
64562;SDS011;50961;48.184;11.636;2022-07-29T15:19:46;3.25;;;2.70;;
64562;SDS011;50961;48.184;11.636;2022-07-29T15:22:11;4.75;;;3.20;;
64562;SDS011;50961;48.184;11.636;2022-07-29T15:24:37;5.00;;;3.38;;
64562;SDS011;50961;48.184;11.636;2022-07-29T15:27:02;4.70;;;3.42;;
64562;SDS011;50961;48.184;11.636;2022-07-29T15:29:28;6.10;;;3.25;;
64562;SDS011;50961;48.184;11.636;2022-07-29T15:31:53;5.22;;;3.00;;
64562;SDS011;50961;48.184;11.636;2022-07-29T15:34:19;6.60;;;3.75;;
64562;SDS011;50961;48.184;11.636;2022-07-29T15:36:45;7.00;;;3.50;;
64562;SDS011;50961;48.184;11.636;2022-07-29T15:39:11;9.90;;;3.95;;